createdAt,value
2019-03-22T00:01:17.542Z,74.00
2019-03-22T00:03:47.271Z,76.37
2019-03-22T00:06:17.070Z,76.27
2019-03-22T00:08:46.964Z,78.10
2019-03-22T00:11:16.084Z,72.53
2019-03-22T00:13:45.699Z,71.53
2019-03-22T00:16:15.181Z,74.57
2019-03-22T00:18:44.502Z,78.33
2019-03-22T00:21:14.944Z,74.73
2019-03-22T00:23:44.571Z,69.23
2019-03-22T00:26:14.738Z,82.57
2019-03-22T00:28:45.110Z,69.80
2019-03-22T00:31:14.903Z,75.10
2019-03-22T00:33:44.596Z,72.37
2019-03-22T00:36:14.007Z,81.90
2019-03-22T00:38:43.994Z,75.63
2019-03-22T00:41:13.293Z,71.67
2019-03-22T00:43:44.000Z,69.87
2019-03-22T00:46:13.628Z,77.73
2019-03-22T00:48:43.686Z,73.10
2019-03-22T00:51:14.175Z,69.00
2019-03-22T00:53:44.324Z,76.27
2019-03-22T00:56:14.373Z,78.97
2019-03-22T00:58:44.717Z,76.57
2019-03-22T01:01:15.471Z,80.97
2019-03-22T01:03:45.519Z,77.17
2019-03-22T01:06:15.605Z,80.50
2019-03-22T01:08:45.585Z,83.03
2019-03-22T01:11:16.082Z,80.73
2019-03-22T01:13:45.937Z,91.43
2019-03-22T01:16:15.961Z,100.00
2019-03-22T01:18:46.440Z,92.43
2019-03-22T01:21:16.167Z,97.63
2019-03-22T01:23:47.057Z,97.03
2019-03-22T01:26:19.100Z,101.03
2019-03-22T01:28:49.578Z,100.87
2019-03-22T01:31:20.263Z,103.87
2019-03-22T01:33:50.110Z,99.47
2019-03-22T01:36:19.928Z,96.07
2019-03-22T01:38:50.135Z,93.17
2019-03-22T01:41:19.739Z,90.03
2019-03-22T01:43:51.293Z,87.17
2019-03-22T01:46:23.317Z,85.47
2019-03-22T01:48:53.862Z,82.17
2019-03-22T01:51:24.270Z,83.43
2019-03-22T01:53:55.231Z,81.43
2019-03-22T01:56:25.316Z,85.00
2019-03-22T01:58:55.344Z,79.97
2019-03-22T02:01:24.811Z,77.67
2019-03-22T02:03:54.659Z,82.07
2019-03-22T02:06:24.582Z,86.20
2019-03-22T02:08:54.510Z,79.13
2019-03-22T02:11:24.933Z,70.10
2019-03-22T02:13:54.835Z,71.53
2019-03-22T02:16:24.290Z,71.90
2019-03-22T02:18:54.082Z,79.10
2019-03-22T02:21:23.686Z,69.00
2019-03-22T02:23:54.098Z,89.67
2019-03-22T02:26:23.963Z,82.90
2019-03-22T02:28:54.337Z,79.90
2019-03-22T02:31:24.797Z,89.53
2019-03-22T02:33:55.574Z,91.50
2019-03-22T02:36:25.637Z,86.23
2019-03-22T02:38:55.734Z,82.97
2019-03-22T02:41:25.756Z,78.23
2019-03-22T02:43:55.547Z,77.50
2019-03-22T02:46:25.694Z,70.00
2019-03-22T02:48:55.947Z,78.80
2019-03-22T02:51:26.293Z,73.00
2019-03-22T02:53:56.424Z,66.40
2019-03-22T02:56:25.957Z,65.43
2019-03-22T02:58:59.074Z,62.10
2019-03-22T03:01:25.737Z,65.50
2019-03-22T03:03:55.149Z,64.93
2019-03-22T03:06:24.439Z,58.57
2019-03-22T03:08:54.437Z,58.10
2019-03-22T03:11:24.067Z,52.10
2019-03-22T03:13:53.889Z,52.33
2019-03-22T03:16:23.078Z,51.23
2019-03-22T03:18:53.343Z,47.60
2019-03-22T03:21:26.504Z,47.37
2019-03-22T03:23:56.454Z,48.10
2019-03-22T03:26:25.865Z,47.77
2019-03-22T03:28:55.076Z,47.97
2019-03-22T03:31:24.820Z,51.80
2019-03-22T03:33:54.849Z,48.10
2019-03-22T03:36:24.627Z,51.13
2019-03-22T03:38:54.486Z,50.27
2019-03-22T03:41:24.211Z,47.10
2019-03-22T03:43:54.822Z,47.17
2019-03-22T03:46:24.542Z,48.60
2019-03-22T04:06:10.323Z,42.90
2019-03-22T04:08:50.938Z,43.47
2019-03-22T04:11:32.017Z,41.33
2019-03-22T04:14:13.101Z,43.37
2019-03-22T04:16:53.623Z,39.83
2019-03-22T04:19:34.717Z,42.30
2019-03-22T04:22:15.314Z,41.00
2019-03-22T04:24:55.665Z,40.73
2019-03-22T04:27:35.935Z,43.87
2019-03-22T04:30:16.578Z,41.37
2019-03-22T04:32:56.733Z,39.53
2019-03-22T04:35:37.493Z,44.63
2019-03-22T04:38:18.279Z,42.07
2019-03-22T04:40:59.425Z,44.07
2019-03-22T04:43:40.426Z,41.33
2019-03-22T04:46:20.422Z,42.10
2019-03-22T04:49:00.778Z,42.83
2019-03-22T04:51:42.056Z,43.40
2019-03-22T04:54:23.345Z,42.27
2019-03-22T04:57:03.907Z,40.13
2019-03-22T04:59:44.843Z,43.37
2019-03-22T05:02:25.325Z,42.57
2019-03-22T05:05:06.422Z,41.57
2019-03-22T05:07:47.392Z,40.30
2019-03-22T05:10:27.573Z,39.83
2019-03-22T05:13:08.111Z,39.97
2019-03-22T05:15:48.979Z,40.70
2019-03-22T05:18:29.270Z,41.30
2019-03-22T05:21:10.338Z,39.53
2019-03-22T05:23:50.980Z,41.03
2019-03-22T05:26:32.049Z,43.10
2019-03-22T05:29:13.278Z,41.37
2019-03-22T05:31:54.660Z,42.20
2019-03-22T05:34:35.250Z,41.17
2019-03-22T05:37:16.164Z,40.90
2019-03-22T05:39:57.092Z,41.37
2019-03-22T05:42:38.036Z,42.17
2019-03-22T05:45:18.801Z,42.43
2019-03-22T05:47:59.790Z,43.60
2019-03-22T05:50:41.024Z,41.53
2019-03-22T05:53:21.944Z,43.03
2019-03-22T05:56:02.573Z,42.47
2019-03-22T05:58:43.139Z,42.50
2019-03-22T06:01:24.760Z,41.63
2019-03-22T06:04:05.602Z,43.45
2019-03-22T06:06:47.035Z,42.50
2019-03-22T06:09:27.706Z,42.45
2019-03-22T06:12:08.562Z,42.83
2019-03-22T06:14:48.944Z,43.43
2019-03-22T06:17:29.506Z,44.07
2019-03-22T06:20:09.528Z,43.53
2019-03-22T06:22:50.940Z,47.43
2019-03-22T06:25:31.536Z,45.93
2019-03-22T06:28:12.758Z,48.20
2019-03-22T06:30:53.227Z,47.33
2019-03-22T06:33:34.361Z,44.93
2019-03-22T06:36:15.293Z,44.07
2019-03-22T06:38:56.004Z,45.67
2019-03-22T06:41:36.820Z,44.37
2019-03-22T06:44:17.426Z,47.40
2019-03-22T06:47:02.726Z,46.67
2019-03-22T06:49:48.453Z,43.77
2019-03-22T06:52:30.656Z,42.33
2019-03-22T06:55:17.215Z,45.00
2019-03-22T06:57:58.740Z,48.17
2019-03-22T07:00:39.675Z,46.58
2019-03-22T07:03:20.920Z,45.57
2019-03-22T07:06:01.846Z,45.38
2019-03-22T07:08:43.246Z,44.17
2019-03-22T07:11:24.197Z,42.40
2019-03-22T07:14:06.423Z,44.30
2019-03-22T07:16:47.310Z,43.58
2019-03-22T07:19:28.051Z,49.50
2019-03-22T07:22:10.166Z,43.53
2019-03-22T07:24:52.100Z,43.92
2019-03-22T07:27:33.719Z,43.52
2019-03-22T07:30:18.854Z,44.38
2019-03-22T08:10:29.721Z,46.95
2019-03-22T08:13:10.680Z,43.33
2019-03-22T08:15:52.863Z,45.30
2019-03-22T08:18:39.313Z,46.30
2019-03-22T08:21:24.244Z,45.00
2019-03-22T08:24:07.028Z,45.77
2019-03-22T08:26:49.013Z,43.42
2019-03-22T08:32:19.824Z,45.00
2019-03-22T08:35:00.981Z,45.38
2019-03-22T08:37:52.049Z,44.93
2019-03-22T08:40:25.864Z,45.05
2019-03-22T08:43:06.811Z,44.33
2019-03-22T08:45:48.229Z,46.20
2019-03-22T08:48:29.124Z,43.50
2019-03-22T08:51:09.848Z,43.90
2019-03-22T08:53:55.424Z,43.37
2019-03-22T08:56:35.734Z,44.23
2019-03-22T08:59:13.926Z,44.85
2019-03-22T09:01:55.855Z,44.10
2019-03-22T09:04:37.756Z,46.13
2019-03-22T09:07:24.124Z,43.80
2019-03-22T09:10:04.481Z,44.67
2019-03-22T09:12:46.483Z,46.63
2019-03-22T09:15:40.740Z,44.37
2019-03-22T09:18:09.764Z,44.93
2019-03-22T09:20:51.658Z,45.57
2019-03-22T09:23:33.116Z,46.63
2019-03-22T09:26:13.475Z,47.30
2019-03-22T09:28:53.797Z,48.03
2019-03-22T09:31:37.668Z,48.33
2019-03-22T09:34:19.407Z,47.50
2019-03-22T09:37:04.025Z,46.73
2019-03-22T09:39:48.462Z,48.63
2019-03-22T09:42:29.495Z,49.80
2019-03-22T09:45:10.154Z,48.73
2019-03-22T09:47:52.049Z,46.93
2019-03-22T09:50:32.971Z,48.38
2019-03-22T09:53:13.577Z,47.90
2019-03-22T09:55:54.786Z,46.73
2019-03-22T09:58:36.170Z,46.20
2019-03-22T10:01:23.636Z,46.03
2019-03-22T10:03:59.706Z,45.38
2019-03-22T10:06:42.452Z,45.73
2019-03-22T10:09:24.134Z,46.43
2019-03-22T10:12:06.140Z,45.67
2019-03-22T10:14:47.505Z,45.73
2019-03-22T10:17:28.450Z,45.00
2019-03-22T10:20:11.107Z,43.83
2019-03-22T10:22:53.026Z,44.00
2019-03-22T10:25:35.284Z,45.90
2019-03-22T10:28:20.863Z,43.77
2019-03-22T10:31:03.127Z,45.60
2019-03-22T10:33:46.943Z,44.30
2019-03-22T10:36:28.802Z,44.37
2019-03-22T10:39:11.421Z,44.03
2019-03-22T10:41:55.610Z,43.27
2019-03-22T10:44:35.831Z,42.67
2019-03-22T10:47:18.035Z,42.60
2019-03-22T10:49:58.723Z,42.80
2019-03-22T10:52:39.030Z,40.90
2019-03-22T10:55:29.666Z,43.03
2019-03-22T10:58:00.598Z,44.27
2019-03-22T11:00:41.293Z,39.17
2019-03-22T12:46:33.194Z,27.93
2019-03-22T12:49:13.938Z,23.90
2019-03-22T12:51:55.856Z,24.73
2019-03-22T12:54:37.350Z,23.87
2019-03-22T12:57:19.526Z,30.23
2019-03-22T13:00:00.674Z,29.40
2019-03-22T13:02:42.430Z,31.87
2019-03-22T13:05:23.342Z,29.63
2019-03-22T13:08:04.533Z,36.90
2019-03-22T13:10:45.762Z,36.17
2019-03-22T13:13:26.648Z,44.20
2019-03-22T13:16:07.940Z,42.30
2019-03-22T13:18:50.459Z,39.63
2019-03-22T13:21:30.987Z,40.30
2019-03-22T13:24:12.229Z,39.40
2019-03-22T13:26:53.146Z,43.77
2019-03-22T13:29:34.022Z,44.03
2019-03-22T13:32:15.065Z,45.63
2019-03-22T13:34:55.707Z,60.97
2019-03-22T13:37:36.969Z,55.93
2019-03-22T13:40:18.612Z,42.97
2019-03-22T13:42:59.605Z,49.93
2019-03-22T13:45:40.802Z,49.97
2019-03-22T13:48:23.253Z,49.47
2019-03-22T13:51:04.777Z,47.57
2019-03-22T13:53:45.861Z,52.87
2019-03-22T13:56:26.473Z,51.97
2019-03-22T13:59:07.176Z,58.07
2019-03-22T14:01:48.117Z,62.47
2019-03-22T14:04:29.258Z,63.13
2019-03-22T14:10:27.267Z,60.80
2019-03-22T14:13:13.002Z,58.13
2019-03-22T14:15:57.107Z,60.23
2019-03-22T14:21:22.733Z,67.60
2019-03-22T14:24:05.394Z,63.70
2019-03-22T14:26:46.564Z,63.70
2019-03-22T14:29:28.240Z,65.57
2019-03-22T14:32:10.148Z,61.50
2019-03-22T14:34:50.761Z,61.73
2019-03-22T14:37:31.504Z,67.47
2019-03-22T14:40:28.888Z,64.97
2019-03-22T14:43:09.488Z,67.33
2019-03-22T14:45:51.070Z,73.60
2019-03-22T14:48:33.242Z,70.80
2019-03-22T14:57:49.900Z,71.93
2019-03-22T15:00:26.205Z,74.70
2019-03-22T15:03:07.256Z,76.23
2019-03-22T15:05:47.833Z,78.80
2019-03-22T15:08:29.520Z,76.37
2019-03-22T15:11:09.725Z,80.93
2019-03-22T15:13:50.137Z,74.00
2019-03-22T15:16:30.862Z,85.37
2019-03-22T15:19:11.995Z,83.10
2019-03-22T15:21:52.996Z,90.53
2019-03-22T15:24:35.543Z,81.17
2019-03-22T15:27:15.912Z,72.33
2019-03-22T15:29:56.731Z,76.97
2019-03-22T15:32:37.323Z,67.50
2019-03-22T15:35:20.166Z,68.23
2019-03-22T15:38:03.898Z,67.80
2019-03-22T15:40:49.358Z,63.13
2019-03-22T15:43:35.728Z,65.00
2019-03-22T15:46:17.884Z,61.57
2019-03-22T15:48:59.057Z,62.00
2019-03-22T15:51:44.589Z,58.53
2019-03-22T15:54:30.839Z,63.20
2019-03-22T15:57:21.110Z,66.70
2019-03-22T16:00:02.883Z,69.20
2019-03-22T16:02:46.405Z,70.97
2019-03-22T16:05:29.069Z,65.47
2019-03-22T16:08:12.504Z,75.70
2019-03-22T16:13:47.588Z,72.07
2019-03-22T16:16:34.663Z,71.10
2019-03-22T16:19:17.528Z,69.10
2019-03-22T16:22:00.775Z,70.37
2019-03-22T16:24:40.743Z,76.87
